Time;durP1;ratioP1;P1;durP2;ratioP2;P2;SDS_P1;SDS_P2;PMS_P1;PMS_P2;Temp;Humidity;BMP_temperature;BMP_pressure;BME280_temperature;BME280_humidity;BME280_pressure;Samples;Min_cycle;Max_cycle;Signal;HPM_P1;HPM_P2
2021/01/09 00:01:22;;;;;;;2.83;2.00;;;-1.50;99.90;;;;;;4990764;28;20231;-66
2021/01/09 00:03:48;;;;;;;3.42;2.03;;;-1.50;99.90;;;;;;4994113;28;20211;-66
2021/01/09 00:06:14;;;;;;;4.03;2.35;;;-1.60;99.90;;;;;;4992991;28;20569;-66
2021/01/09 00:08:40;;;;;;;3.95;2.30;;;-1.60;99.90;;;;;;4992998;28;20278;-66
2021/01/09 00:11:06;;;;;;;2.92;2.50;;;-1.60;99.90;;;;;;4996132;28;20209;-66
2021/01/09 00:13:31;;;;;;;3.65;2.22;;;-1.60;99.90;;;;;;4992931;28;20220;-67
2021/01/09 00:15:57;;;;;;;3.30;2.10;;;-1.60;99.90;;;;;;4985982;28;20748;-67
2021/01/09 00:18:23;;;;;;;3.55;2.22;;;-1.60;99.90;;;;;;4991755;28;20195;-67
2021/01/09 00:20:49;;;;;;;3.92;2.17;;;-1.60;99.90;;;;;;4994529;28;20209;-66
2021/01/09 00:23:15;;;;;;;3.90;2.25;;;-1.50;99.90;;;;;;4991489;28;20211;-67
2021/01/09 00:25:40;;;;;;;3.30;2.05;;;-1.60;99.90;;;;;;4989511;28;20199;-66
2021/01/09 00:28:06;;;;;;;3.67;2.22;;;-1.60;99.90;;;;;;4992913;28;20227;-66
2021/01/09 00:30:32;;;;;;;4.85;2.20;;;-1.50;99.90;;;;;;4989287;28;20907;-67
2021/01/09 00:32:58;;;;;;;3.80;2.40;;;-1.60;99.90;;;;;;4991180;28;20205;-66
2021/01/09 00:35:24;;;;;;;4.03;2.47;;;-1.60;99.90;;;;;;4989686;28;20229;-66
2021/01/09 00:37:50;;;;;;;3.28;2.10;;;-1.60;99.90;;;;;;4998766;28;20290;-66
2021/01/09 00:40:16;;;;;;;3.92;2.40;;;-1.50;99.90;;;;;;4996286;28;20225;-67
2021/01/09 00:42:42;;;;;;;4.57;2.47;;;-1.60;99.90;;;;;;4989420;28;21754;-67
2021/01/09 00:45:09;;;;;;;3.33;2.15;;;-1.60;99.90;;;;;;4997867;28;20515;-67
2021/01/09 00:47:35;;;;;;;4.15;2.40;;;-1.50;99.90;;;;;;4993511;28;20195;-66
2021/01/09 00:50:01;;;;;;;3.30;1.98;;;-1.50;99.90;;;;;;4991837;28;20194;-67
2021/01/09 00:52:26;;;;;;;4.43;2.20;;;-1.50;99.90;;;;;;4997545;28;20205;-69
2021/01/09 00:54:52;;;;;;;4.40;2.47;;;-1.60;99.90;;;;;;4993595;28;20214;-66
2021/01/09 00:57:18;;;;;;;3.83;2.22;;;-1.60;99.90;;;;;;4994200;28;20207;-66
2021/01/09 00:59:44;;;;;;;3.35;2.08;;;-1.60;99.90;;;;;;4993387;28;20293;-69
2021/01/09 01:02:09;;;;;;;2.88;1.90;;;-1.60;99.90;;;;;;4991314;28;20322;-67
2021/01/09 01:04:35;;;;;;;4.60;2.63;;;-1.50;99.90;;;;;;4995192;28;20297;-67
2021/01/09 01:07:01;;;;;;;3.58;2.33;;;-1.60;99.90;;;;;;4994573;28;20233;-66
2021/01/09 01:09:26;;;;;;;3.72;2.22;;;-1.60;99.90;;;;;;4997910;28;20213;-66
2021/01/09 01:11:52;;;;;;;3.42;2.00;;;-1.50;99.90;;;;;;4997413;28;20195;-67
2021/01/09 01:14:18;;;;;;;4.30;2.50;;;-1.50;99.90;;;;;;4998349;28;20720;-67
2021/01/09 01:16:44;;;;;;;3.13;2.30;;;-1.50;99.90;;;;;;4997201;28;20258;-67
2021/01/09 01:19:11;;;;;;;3.45;2.30;;;-1.50;99.90;;;;;;4993955;28;20233;-69
2021/01/09 01:21:37;;;;;;;5.50;2.50;;;-1.50;99.90;;;;;;4999111;28;20708;-68
2021/01/09 01:24:04;;;;;;;4.20;2.42;;;-1.50;99.90;;;;;;4993416;28;20233;-67
2021/01/09 01:26:30;;;;;;;3.72;2.10;;;-1.50;99.90;;;;;;4993278;28;20199;-66
2021/01/09 01:28:55;;;;;;;3.28;2.28;;;-1.40;99.90;;;;;;4994410;28;20194;-66
2021/01/09 01:31:24;;;;;;;4.38;2.20;;;-1.50;99.90;;;;;;4996711;28;20205;-66
2021/01/09 01:33:51;;;;;;;3.08;2.05;;;-1.50;99.90;;;;;;4995059;28;20213;-67
2021/01/09 01:36:16;;;;;;;3.50;2.15;;;-1.50;99.90;;;;;;4997061;28;20211;-67
2021/01/09 01:38:42;;;;;;;5.63;2.55;;;-1.40;99.90;;;;;;4996028;28;20277;-67
2021/01/09 01:41:09;;;;;;;3.47;2.10;;;-1.50;99.90;;;;;;4999880;28;20254;-66
2021/01/09 01:43:36;;;;;;;3.63;2.30;;;-1.40;99.90;;;;;;4996526;28;20225;-67
2021/01/09 01:46:04;;;;;;;4.28;2.60;;;-1.40;99.90;;;;;;4997227;28;20195;-67
2021/01/09 01:48:31;;;;;;;4.25;2.30;;;-1.40;99.90;;;;;;4995858;28;20195;-66
2021/01/09 01:50:57;;;;;;;4.28;2.08;;;-1.40;99.90;;;;;;4997244;28;20203;-68
2021/01/09 01:53:22;;;;;;;3.40;1.90;;;-1.50;99.90;;;;;;4993140;28;20206;-67
2021/01/09 01:55:50;;;;;;;3.85;2.28;;;-1.40;99.90;;;;;;4993815;28;20678;-67
2021/01/09 01:58:16;;;;;;;3.92;2.20;;;-1.50;99.90;;;;;;4993315;28;20210;-67
2021/01/09 02:00:45;;;;;;;4.63;2.13;;;-1.50;99.90;;;;;;4995884;28;20752;-66
2021/01/09 02:03:12;;;;;;;3.15;2.00;;;-1.50;99.90;;;;;;4999662;28;20214;-68
2021/01/09 02:05:42;;;;;;;3.42;2.03;;;-1.50;99.90;;;;;;5002334;23;20591;-69
2021/01/09 02:08:12;;;;;;;4.10;2.47;;;-1.60;99.90;;;;;;4998092;28;20197;-69
2021/01/09 02:10:44;;;;;;;3.70;2.30;;;-1.60;99.90;;;;;;4996874;28;20210;-69
2021/01/09 02:13:21;;;;;;;3.65;2.08;;;-1.60;99.90;;;;;;4997912;28;20248;-69
2021/01/09 02:15:50;;;;;;;4.43;2.35;;;-1.60;99.90;;;;;;4995610;28;20632;-69
2021/01/09 02:18:19;;;;;;;3.30;2.22;;;-1.60;99.90;;;;;;4998126;28;20251;-68
2021/01/09 02:20:49;;;;;;;3.20;2.20;;;-1.50;99.90;;;;;;4999765;28;20218;-69
2021/01/09 02:23:14;;;;;;;3.92;2.40;;;-1.50;99.90;;;;;;4999170;28;20680;-69
2021/01/09 02:25:40;;;;;;;3.72;2.30;;;-1.50;99.90;;;;;;4997874;28;20209;-69
2021/01/09 02:28:06;;;;;;;3.85;1.92;;;-1.50;99.90;;;;;;5000088;28;20192;-68
2021/01/09 02:30:34;;;;;;;4.93;2.15;;;-1.50;99.90;;;;;;4999381;28;20199;-69
2021/01/09 02:33:00;;;;;;;3.42;2.10;;;-1.50;99.90;;;;;;5002646;28;20633;-68
2021/01/09 02:35:27;;;;;;;3.28;2.13;;;-1.50;99.90;;;;;;4995944;28;20199;-69
2021/01/09 02:37:54;;;;;;;4.68;2.40;;;-1.60;99.90;;;;;;5000523;28;20671;-69
2021/01/09 02:40:20;;;;;;;4.32;2.60;;;-1.60;99.90;;;;;;4998056;28;20562;-69
2021/01/09 02:42:46;;;;;;;3.40;2.10;;;-1.60;99.90;;;;;;5000419;28;20202;-69
2021/01/09 02:45:12;;;;;;;2.75;2.10;;;-1.60;99.90;;;;;;4998739;28;20213;-69
2021/01/09 02:47:38;;;;;;;3.20;1.92;;;-1.60;99.90;;;;;;4997610;28;21210;-69
2021/01/09 02:50:06;;;;;;;2.58;1.92;;;-1.60;99.90;;;;;;4997545;28;20231;-69
2021/01/09 02:52:32;;;;;;;3.95;2.10;;;-1.50;99.90;;;;;;4998288;28;20195;-68
2021/01/09 02:54:57;;;;;;;7.55;2.42;;;-1.50;99.90;;;;;;4997030;28;20199;-69
2021/01/09 02:57:24;;;;;;;3.10;1.92;;;-1.50;99.90;;;;;;4998635;28;20206;-69
2021/01/09 02:59:49;;;;;;;3.83;2.38;;;-1.50;99.90;;;;;;5001229;28;20764;-69
2021/01/09 03:02:15;;;;;;;3.70;2.00;;;-1.50;99.90;;;;;;4995174;28;20203;-69
2021/01/09 03:04:41;;;;;;;4.00;2.10;;;-1.50;99.90;;;;;;4981203;28;20236;-69
2021/01/09 03:07:06;;;;;;;4.28;2.17;;;-1.50;99.90;;;;;;4978938;28;20258;-68
2021/01/09 03:09:33;;;;;;;3.72;2.25;;;-1.50;99.90;;;;;;4976370;28;20204;-69
2021/01/09 03:11:58;;;;;;;3.35;1.90;;;-1.50;99.90;;;;;;4979105;28;20701;-69
2021/01/09 03:14:24;;;;;;;2.92;2.00;;;-1.50;99.90;;;;;;4976331;28;20207;-69
2021/01/09 03:16:50;;;;;;;3.25;2.20;;;-1.60;99.90;;;;;;4978324;28;20223;-69
2021/01/09 03:19:15;;;;;;;3.60;2.10;;;-1.60;99.90;;;;;;4980567;28;20200;-69
2021/01/09 03:21:41;;;;;;;4.63;2.38;;;-1.50;99.90;;;;;;4981199;28;20283;-69
2021/01/09 03:24:07;;;;;;;4.38;2.40;;;-1.50;99.90;;;;;;4977291;28;20204;-69
2021/01/09 03:26:33;;;;;;;4.57;2.47;;;-1.50;99.90;;;;;;4981548;28;20973;-69
2021/01/09 03:28:58;;;;;;;2.65;2.03;;;-1.50;99.90;;;;;;4977954;28;20227;-69
2021/01/09 03:31:24;;;;;;;3.55;2.22;;;-1.50;99.90;;;;;;4976885;28;20290;-69
2021/01/09 03:33:50;;;;;;;2.95;2.13;;;-1.50;99.90;;;;;;4980355;28;20234;-69
2021/01/09 03:36:16;;;;;;;4.88;2.50;;;-1.50;99.90;;;;;;4978400;28;21009;-68
2021/01/09 03:38:42;;;;;;;4.03;2.42;;;-1.50;99.90;;;;;;4980403;28;21081;-69
2021/01/09 03:41:08;;;;;;;4.72;2.13;;;-1.50;99.90;;;;;;4980682;28;20282;-69
2021/01/09 03:43:34;;;;;;;3.13;1.98;;;-1.50;99.90;;;;;;4980575;28;20204;-69
2021/01/09 03:45:59;;;;;;;3.05;2.10;;;-1.50;99.90;;;;;;4978356;28;20241;-69
2021/01/09 03:48:25;;;;;;;3.00;2.10;;;-1.60;99.90;;;;;;4977932;28;20409;-68
2021/01/09 03:50:51;;;;;;;4.43;2.22;;;-1.50;99.90;;;;;;4977528;28;20254;-69
2021/01/09 03:53:17;;;;;;;3.40;2.30;;;-1.50;99.90;;;;;;4976989;28;20204;-68
2021/01/09 03:55:43;;;;;;;5.32;2.63;;;-1.50;99.90;;;;;;4974346;28;20262;-69
2021/01/09 03:58:09;;;;;;;3.92;2.20;;;-1.50;99.90;;;;;;4977851;28;20680;-69
2021/01/09 04:00:34;;;;;;;6.03;3.53;;;-1.50;99.90;;;;;;4976920;28;20417;-69
2021/01/09 04:03:00;;;;;;;6.28;3.03;;;-1.50;99.90;;;;;;4978622;28;20233;-69
2021/01/09 04:05:26;;;;;;;4.80;2.85;;;-1.50;99.90;;;;;;4975845;28;20231;-69
2021/01/09 04:07:51;;;;;;;3.20;2.45;;;-1.60;99.90;;;;;;4979180;28;20191;-69
2021/01/09 04:10:17;;;;;;;3.78;2.42;;;-1.60;99.90;;;;;;4978782;28;20200;-68
2021/01/09 04:12:43;;;;;;;4.25;2.53;;;-1.60;99.90;;;;;;4975303;28;20298;-69
2021/01/09 04:15:09;;;;;;;5.00;2.30;;;-1.60;99.90;;;;;;4978458;28;20661;-69
2021/01/09 04:17:35;;;;;;;4.60;2.50;;;-1.60;99.90;;;;;;4977982;28;20231;-69
2021/01/09 04:20:00;;;;;;;4.30;2.50;;;-1.60;99.90;;;;;;4979814;28;20226;-69
2021/01/09 04:22:26;;;;;;;4.13;2.47;;;-1.60;99.90;;;;;;4978285;28;20231;-68
2021/01/09 04:24:52;;;;;;;5.45;2.30;;;-1.50;99.90;;;;;;4977627;28;20707;-69
2021/01/09 04:27:17;;;;;;;3.60;2.25;;;-1.60;99.90;;;;;;4977264;28;20199;-69
2021/01/09 04:29:43;;;;;;;3.78;2.20;;;-1.60;99.90;;;;;;4978633;28;20984;-69
2021/01/09 04:32:09;;;;;;;2.88;1.92;;;-1.60;99.90;;;;;;4980594;28;20203;-68
2021/01/09 04:34:34;;;;;;;3.63;2.17;;;-1.60;99.90;;;;;;4978491;28;20646;-68
2021/01/09 04:37:00;;;;;;;5.07;2.70;;;-1.60;99.90;;;;;;4980000;28;20238;-69
2021/01/09 04:39:26;;;;;;;4.20;2.35;;;-1.60;99.90;;;;;;4978011;28;20200;-69
2021/01/09 04:41:51;;;;;;;4.20;2.50;;;-1.60;99.90;;;;;;4980484;28;20576;-69
2021/01/09 04:44:17;;;;;;;4.20;2.38;;;-1.60;99.90;;;;;;4976612;28;20864;-69
2021/01/09 04:46:55;;;;;;;2.45;1.83;;;-1.60;99.90;;;;;;4978541;28;20230;-69
2021/01/09 04:49:26;;;;;;;4.10;2.20;;;-1.60;99.90;;;;;;4977548;28;20200;-69
2021/01/09 04:51:53;;;;;;;3.38;2.10;;;-1.60;99.90;;;;;;4979286;28;20572;-69
2021/01/09 04:54:21;;;;;;;3.72;2.33;;;-1.60;99.90;;;;;;4978537;28;20204;-69
2021/01/09 04:56:54;;;;;;;4.88;2.20;;;-1.50;99.90;;;;;;4976876;28;20565;-68
2021/01/09 04:59:23;;;;;;;4.50;2.50;;;-1.50;99.90;;;;;;4979422;28;20246;-68
2021/01/09 05:01:50;;;;;;;2.58;2.08;;;-1.50;99.90;;;;;;4980581;28;20206;-69
2021/01/09 05:04:17;;;;;;;3.38;1.98;;;-1.60;99.90;;;;;;4978260;28;20227;-69
2021/01/09 05:06:44;;;;;;;3.45;2.28;;;-1.60;99.90;;;;;;4980208;28;20211;-69
2021/01/09 05:09:12;;;;;;;3.35;2.30;;;-1.50;99.90;;;;;;4979198;28;20249;-69
2021/01/09 05:11:40;;;;;;;4.32;2.45;;;-1.50;99.90;;;;;;4978702;28;20191;-69
2021/01/09 05:14:06;;;;;;;4.63;2.38;;;-1.50;99.90;;;;;;4977425;28;20764;-69
2021/01/09 05:16:36;;;;;;;2.97;2.17;;;-1.50;99.90;;;;;;4976918;28;20219;-69
2021/01/09 05:19:04;;;;;;;3.97;2.40;;;-1.50;99.90;;;;;;4977838;28;20571;-69
2021/01/09 05:21:32;;;;;;;7.70;2.58;;;-1.50;99.90;;;;;;4978418;28;20196;-69
2021/01/09 05:24:02;;;;;;;5.00;2.38;;;-1.50;99.90;;;;;;4977175;28;20220;-69
2021/01/09 05:26:28;;;;;;;3.42;2.28;;;-1.60;99.90;;;;;;4978769;28;20222;-69
2021/01/09 05:29:00;;;;;;;4.03;2.38;;;-1.60;99.90;;;;;;4979574;28;20931;-69
2021/01/09 05:31:28;;;;;;;5.10;2.22;;;-1.50;99.90;;;;;;4979482;28;20262;-69
2021/01/09 05:33:54;;;;;;;3.92;2.47;;;-1.50;99.90;;;;;;4978594;28;20238;-69
2021/01/09 05:36:21;;;;;;;4.05;2.58;;;-1.50;99.90;;;;;;4982748;28;20204;-69
2021/01/09 05:38:49;;;;;;;3.70;2.42;;;-1.50;99.90;;;;;;4983125;28;20682;-70
2021/01/09 05:41:23;;;;;;;3.65;2.05;;;-1.50;99.90;;;;;;4982998;28;20203;-69
2021/01/09 05:44:05;;;;;;;3.20;2.08;;;-1.50;99.90;;;;;;4979701;28;20214;-69
2021/01/09 05:46:39;;;;;;;3.95;2.30;;;-1.50;99.90;;;;;;4981653;28;20689;-69
2021/01/09 05:49:06;;;;;;;4.60;2.50;;;-1.60;99.90;;;;;;4984165;28;20257;-69
2021/01/09 05:51:34;;;;;;;3.15;2.40;;;-1.50;99.90;;;;;;4982593;28;20192;-69
2021/01/09 05:54:00;;;;;;;4.20;2.35;;;-1.50;99.90;;;;;;4976869;28;20208;-69
2021/01/09 05:56:26;;;;;;;4.13;2.42;;;-1.50;99.90;;;;;;4979766;28;20227;-69
2021/01/09 05:58:53;;;;;;;5.93;2.28;;;-1.50;99.90;;;;;;4982954;28;20580;-69
2021/01/09 06:01:26;;;;;;;4.40;2.55;;;-1.50;99.90;;;;;;4981070;28;22625;-69
2021/01/09 06:04:02;;;;;;;3.17;2.03;;;-1.50;99.90;;;;;;4980890;28;20234;-69
2021/01/09 06:06:45;;;;;;;3.78;2.60;;;-1.50;99.90;;;;;;4980122;28;20306;-69
2021/01/09 06:09:35;;;;;;;3.78;2.50;;;-1.50;99.90;;;;;;4979345;28;20203;-69
2021/01/09 06:12:07;;;;;;;6.05;3.05;;;-1.50;99.90;;;;;;4977977;28;20200;-69
2021/01/09 06:14:35;;;;;;;6.35;2.63;;;-1.50;99.90;;;;;;4980497;28;20202;-69
2021/01/09 06:17:01;;;;;;;3.92;2.65;;;-1.50;99.90;;;;;;4976677;28;20199;-69
2021/01/09 06:19:27;;;;;;;4.75;2.58;;;-1.50;99.90;;;;;;4974970;28;20215;-69
2021/01/09 06:21:55;;;;;;;3.40;2.20;;;-1.50;99.90;;;;;;4977633;28;20200;-69
2021/01/09 06:24:21;;;;;;;4.03;2.70;;;-1.50;99.90;;;;;;4975516;28;20223;-69
2021/01/09 06:26:47;;;;;;;5.47;2.58;;;-1.50;99.90;;;;;;4977814;28;20224;-69
2021/01/09 06:29:21;;;;;;;4.90;2.58;;;-1.40;99.90;;;;;;4976436;28;20192;-69
2021/01/09 06:31:56;;;;;;;3.63;2.20;;;-1.40;99.90;;;;;;4979115;28;20212;-69
2021/01/09 06:34:27;;;;;;;3.28;2.42;;;-1.40;99.90;;;;;;4974686;28;20246;-69
2021/01/09 06:36:54;;;;;;;4.40;2.58;;;-1.50;99.90;;;;;;4978152;28;20608;-69
2021/01/09 06:39:20;;;;;;;3.85;2.53;;;-1.40;99.90;;;;;;4976682;28;20195;-69
2021/01/09 06:41:48;;;;;;;4.25;2.60;;;-1.50;99.90;;;;;;4976672;28;20196;-69
2021/01/09 06:44:14;;;;;;;4.82;2.72;;;-1.50;99.90;;;;;;4976352;28;20216;-69
2021/01/09 06:46:42;;;;;;;3.40;2.22;;;-1.50;99.90;;;;;;4978715;28;20721;-69
2021/01/09 06:49:16;;;;;;;4.50;2.33;;;-1.50;99.90;;;;;;4976136;28;20288;-69
2021/01/09 06:51:44;;;;;;;3.65;2.40;;;-1.50;99.90;;;;;;4973493;28;20656;-69
2021/01/09 06:54:19;;;;;;;4.00;2.50;;;-1.40;99.90;;;;;;4976789;28;20218;-69
2021/01/09 06:56:46;;;;;;;4.72;2.78;;;-1.50;99.90;;;;;;4976497;28;20280;-69
2021/01/09 06:59:48;;;;;;;3.80;2.70;;;-1.50;99.90;;;;;;4975740;28;20749;-69
2021/01/09 07:02:25;;;;;;;5.00;3.10;;;-1.50;99.90;;;;;;4900535;29;20245;-69
2021/01/09 07:04:58;;;;;;;3.70;2.50;;;-1.50;99.90;;;;;;4900270;29;20316;-69
2021/01/09 07:07:32;;;;;;;5.13;3.10;;;-1.50;99.90;;;;;;4901213;29;20248;-69
2021/01/09 07:10:12;;;;;;;4.30;2.65;;;-1.40;99.90;;;;;;4898878;29;20212;-70
2021/01/09 07:12:40;;;;;;;6.68;3.28;;;-1.40;99.90;;;;;;4897948;29;20216;-69
2021/01/09 07:15:10;;;;;;;7.43;3.17;;;-1.40;99.90;;;;;;4900091;29;20213;-69
2021/01/09 07:17:38;;;;;;;4.85;2.80;;;-1.40;99.90;;;;;;4898594;29;20305;-69
2021/01/09 07:20:06;;;;;;;6.60;2.80;;;-1.40;99.90;;;;;;4896458;29;20273;-70
2021/01/09 07:22:34;;;;;;;5.15;3.00;;;-1.40;99.90;;;;;;4901307;29;20265;-69
2021/01/09 07:25:03;;;;;;;5.15;2.80;;;-1.40;99.90;;;;;;4898720;29;20222;-69
2021/01/09 07:27:44;;;;;;;6.15;2.85;;;-1.30;99.90;;;;;;4899747;29;20321;-69
2021/01/09 07:30:16;;;;;;;5.10;3.03;;;-1.30;99.90;;;;;;4900530;29;20229;-69
2021/01/09 07:32:47;;;;;;;6.00;3.03;;;-1.30;99.90;;;;;;4894558;29;20243;-68
2021/01/09 07:35:21;;;;;;;6.00;3.10;;;-1.30;99.90;;;;;;4892729;28;20287;-69
2021/01/09 07:37:48;;;;;;;6.38;3.50;;;-1.30;99.90;;;;;;4982232;28;20634;-69
2021/01/09 07:40:19;;;;;;;6.15;3.80;;;-1.30;99.90;;;;;;4975800;28;20203;-68
2021/01/09 07:42:46;;;;;;;7.07;3.20;;;-1.30;99.90;;;;;;4977279;28;20280;-69
2021/01/09 07:45:19;;;;;;;5.38;3.25;;;-1.30;99.90;;;;;;4970728;28;20299;-69
2021/01/09 07:47:47;;;;;;;5.85;3.10;;;-1.20;99.90;;;;;;4973203;28;20191;-69
2021/01/09 07:50:15;;;;;;;5.57;3.22;;;-1.20;99.90;;;;;;4973231;28;20199;-69
2021/01/09 07:52:41;;;;;;;6.18;3.38;;;-1.20;99.90;;;;;;4971242;28;20250;-69
2021/01/09 07:55:09;;;;;;;7.68;3.40;;;-1.20;99.90;;;;;;4968406;28;20896;-69
2021/01/09 07:57:39;;;;;;;5.72;3.30;;;-1.20;99.90;;;;;;4968866;28;20227;-69
2021/01/09 08:00:07;;;;;;;5.82;3.22;;;-1.20;99.90;;;;;;4969912;28;20200;-69
2021/01/09 08:02:44;;;;;;;5.63;3.20;;;-1.20;99.90;;;;;;4970241;28;20195;-69
2021/01/09 08:05:22;;;;;;;4.90;3.05;;;-1.20;99.90;;;;;;4967453;28;20231;-69
2021/01/09 08:07:52;;;;;;;8.48;3.00;;;-1.30;99.90;;;;;;4967369;28;20243;-70
2021/01/09 08:10:42;;;;;;;6.57;2.72;;;-1.30;99.90;;;;;;4968048;28;20303;-69
2021/01/09 08:13:08;;;;;;;6.03;3.78;;;-1.20;99.90;;;;;;4974644;28;20661;-68
2021/01/09 08:15:36;;;;;;;5.75;3.58;;;-1.20;99.90;;;;;;4967345;28;20196;-69
2021/01/09 08:18:05;;;;;;;5.35;3.38;;;-1.20;99.90;;;;;;4968308;28;20191;-68
2021/01/09 08:20:31;;;;;;;7.13;3.67;;;-1.20;99.90;;;;;;4967245;28;20228;-69
2021/01/09 08:23:04;;;;;;;7.10;3.78;;;-1.20;99.90;;;;;;4966851;28;20322;-68
2021/01/09 08:25:39;;;;;;;8.30;3.95;;;-1.20;99.90;;;;;;4967042;28;20286;-68
2021/01/09 08:28:06;;;;;;;7.82;4.07;;;-1.10;99.90;;;;;;4967584;28;20257;-68
2021/01/09 08:30:33;;;;;;;9.32;4.13;;;-1.10;99.90;;;;;;4965922;28;20200;-68
2021/01/09 08:33:09;;;;;;;7.70;3.92;;;-1.10;99.90;;;;;;4966923;28;20280;-68
2021/01/09 08:35:40;;;;;;;7.22;3.88;;;-1.10;99.90;;;;;;4980563;28;20318;-68
2021/01/09 08:38:06;;;;;;;6.05;3.38;;;-1.10;99.90;;;;;;4966315;28;20730;-69
2021/01/09 08:40:32;;;;;;;8.48;4.10;;;-1.10;99.90;;;;;;4965169;28;20200;-69
2021/01/09 08:43:21;;;;;;;8.10;4.25;;;-1.00;99.90;;;;;;4967242;28;20225;-69
2021/01/09 08:45:48;;;;;;;8.77;4.40;;;-1.00;99.90;;;;;;4962840;28;20196;-68
2021/01/09 08:48:18;;;;;;;9.02;4.40;;;-1.00;99.90;;;;;;4969695;28;21172;-69
2021/01/09 08:51:03;;;;;;;7.85;4.45;;;-1.00;99.90;;;;;;4974525;28;20278;-68
2021/01/09 08:53:51;;;;;;;9.82;5.00;;;-1.00;99.90;;;;;;4970727;28;20200;-69
2021/01/09 08:56:23;;;;;;;9.70;4.85;;;-1.00;99.90;;;;;;4964127;28;20211;-69
2021/01/09 08:58:49;;;;;;;9.73;4.95;;;-1.10;99.90;;;;;;4968447;28;20288;-68
2021/01/09 09:01:20;;;;;;;10.52;5.70;;;-1.10;99.90;;;;;;4969023;28;20343;-68
2021/01/09 09:03:51;;;;;;;8.95;4.57;;;-1.10;99.90;;;;;;4975045;28;20235;-69
2021/01/09 09:06:21;;;;;;;12.43;5.82;;;-1.20;99.90;;;;;;4973969;28;20265;-69
2021/01/09 09:08:47;;;;;;;8.30;4.63;;;-1.20;99.90;;;;;;4969625;28;20195;-69
2021/01/09 09:11:15;;;;;;;10.18;5.22;;;-1.10;99.90;;;;;;4977497;28;20196;-69
2021/01/09 09:13:41;;;;;;;9.13;4.57;;;-1.10;99.90;;;;;;4976946;28;20375;-68
2021/01/09 09:16:20;;;;;;;8.55;4.38;;;-1.20;99.90;;;;;;4977278;28;20199;-69
2021/01/09 09:18:47;;;;;;;9.05;4.35;;;-1.20;99.90;;;;;;4981671;28;21213;-69
2021/01/09 09:21:14;;;;;;;9.25;4.50;;;-1.20;99.90;;;;;;4974194;28;20211;-69
2021/01/09 09:23:39;;;;;;;10.30;4.85;;;-1.10;99.90;;;;;;4975932;28;20212;-69
2021/01/09 09:26:09;;;;;;;10.23;4.68;;;-1.10;99.90;;;;;;4976059;28;20791;-69
2021/01/09 09:28:46;;;;;;;11.05;4.75;;;-1.10;99.90;;;;;;4978882;28;20217;-69
2021/01/09 09:31:32;;;;;;;8.38;4.45;;;-1.10;99.90;;;;;;4975282;28;20195;-69
2021/01/09 09:34:14;;;;;;;8.23;4.43;;;-1.20;99.90;;;;;;4973480;28;20235;-69
2021/01/09 09:36:58;;;;;;;7.47;3.80;;;-1.10;99.90;;;;;;4973507;28;20203;-69
2021/01/09 09:39:25;;;;;;;5.45;3.40;;;-1.20;99.90;;;;;;4972684;28;20574;-69
2021/01/09 09:41:57;;;;;;;6.22;3.60;;;-1.20;99.90;;;;;;4971182;28;20678;-69
2021/01/09 09:44:41;;;;;;;7.22;3.97;;;-1.20;99.90;;;;;;4988360;28;20215;-69
2021/01/09 09:47:27;;;;;;;7.05;3.83;;;-1.10;99.90;;;;;;4974959;28;20208;-68
2021/01/09 09:49:53;;;;;;;7.75;4.07;;;-1.10;99.90;;;;;;4973268;28;20616;-69
2021/01/09 09:52:22;;;;;;;10.45;4.32;;;-1.10;99.90;;;;;;4970446;28;20200;-69
2021/01/09 09:55:03;;;;;;;7.63;3.92;;;-1.00;99.90;;;;;;4955014;28;20689;-70
2021/01/09 09:57:29;;;;;;;8.95;4.10;;;-1.00;99.90;;;;;;4971380;28;20609;-70
2021/01/09 10:00:22;;;;;;;5.75;3.33;;;-1.00;99.90;;;;;;4973725;28;20204;-70
2021/01/09 10:02:55;;;;;;;8.40;4.00;;;-1.00;99.90;;;;;;4974051;28;20229;-69
2021/01/09 10:05:25;;;;;;;6.05;3.63;;;-1.00;99.90;;;;;;4974196;28;20275;-68
2021/01/09 10:08:07;;;;;;;12.77;4.13;;;-0.90;99.90;;;;;;4976463;28;20638;-69
2021/01/09 10:10:33;;;;;;;7.13;4.00;;;-1.00;99.90;;;;;;4974172;28;20203;-68
2021/01/09 10:13:00;;;;;;;9.07;4.00;;;-0.90;99.90;;;;;;4975350;28;20200;-68
2021/01/09 10:15:26;;;;;;;6.95;4.20;;;-0.90;99.90;;;;;;4974598;28;20191;-69
2021/01/09 10:17:52;;;;;;;7.95;4.05;;;-0.80;99.90;;;;;;4977842;28;20207;-68
2021/01/09 10:20:18;;;;;;;8.30;4.30;;;-0.80;99.90;;;;;;4975395;28;20208;-69
2021/01/09 10:22:44;;;;;;;8.73;4.30;;;-0.80;99.90;;;;;;4974962;28;20206;-69
2021/01/09 10:25:10;;;;;;;7.63;4.35;;;-0.80;99.90;;;;;;4973253;28;20940;-69
2021/01/09 10:27:35;;;;;;;10.50;4.57;;;-0.80;99.90;;;;;;4966647;28;20200;-69
2021/01/09 10:30:02;;;;;;;8.73;4.30;;;-0.70;99.90;;;;;;4967888;28;20577;-69
2021/01/09 10:32:28;;;;;;;6.88;3.85;;;-0.80;99.90;;;;;;4967078;28;20246;-69
2021/01/09 10:34:54;;;;;;;6.82;4.03;;;-0.80;99.90;;;;;;4972099;28;20238;-68
2021/01/09 10:37:20;;;;;;;8.73;4.97;;;-0.80;99.90;;;;;;4973356;28;20606;-69
2021/01/09 10:39:46;;;;;;;10.40;5.00;;;-0.80;99.90;;;;;;4972688;28;20236;-69
2021/01/09 10:42:11;;;;;;;10.70;4.60;;;-0.80;99.90;;;;;;4975627;28;20203;-68
2021/01/09 10:44:37;;;;;;;6.70;3.97;;;-0.80;99.90;;;;;;4972708;28;20271;-69
2021/01/09 10:47:03;;;;;;;7.57;4.07;;;-0.80;99.90;;;;;;4973866;28;20195;-69
2021/01/09 10:49:28;;;;;;;9.02;4.00;;;-0.80;99.90;;;;;;4974637;28;20207;-69
2021/01/09 10:51:54;;;;;;;7.75;4.22;;;-0.80;99.90;;;;;;4976292;28;20625;-69
2021/01/09 10:54:19;;;;;;;10.38;4.28;;;-0.80;99.90;;;;;;4968539;28;21001;-69
2021/01/09 10:56:46;;;;;;;8.65;4.25;;;-0.80;99.90;;;;;;4972773;28;20302;-69
2021/01/09 10:59:12;;;;;;;7.93;4.20;;;-0.80;99.90;;;;;;4973379;28;20203;-70
2021/01/09 11:01:38;;;;;;;8.73;4.70;;;-0.80;99.90;;;;;;4976141;28;20208;-68
2021/01/09 11:04:04;;;;;;;7.07;3.40;;;-0.70;99.90;;;;;;4975517;28;20572;-68
2021/01/09 11:06:29;;;;;;;7.22;3.88;;;-0.70;99.90;;;;;;4970894;28;20577;-68
2021/01/09 11:08:55;;;;;;;9.20;4.03;;;-0.80;99.90;;;;;;4971187;28;20198;-68
2021/01/09 11:11:21;;;;;;;9.52;4.47;;;-0.80;99.90;;;;;;4969746;28;20196;-69
2021/01/09 11:13:50;;;;;;;9.60;3.95;;;-0.70;99.90;;;;;;4977690;28;20226;-69
2021/01/09 11:16:23;;;;;;;8.38;3.95;;;-0.70;99.90;;;;;;4971402;28;20761;-69
2021/01/09 11:18:49;;;;;;;7.45;3.80;;;-0.60;99.90;;;;;;4974219;28;20223;-68
2021/01/09 11:21:16;;;;;;;9.38;4.25;;;-0.70;99.90;;;;;;4971397;28;20204;-69
2021/01/09 11:23:42;;;;;;;8.23;3.97;;;-0.70;99.90;;;;;;4973808;28;20242;-69
2021/01/09 11:26:12;;;;;;;5.88;3.55;;;-0.60;99.90;;;;;;4976207;28;20211;-69
2021/01/09 11:28:38;;;;;;;7.85;3.92;;;-0.60;99.90;;;;;;4978438;28;20196;-68
2021/01/09 11:31:03;;;;;;;8.30;4.22;;;-0.70;99.90;;;;;;4971482;28;20657;-69
2021/01/09 11:33:29;;;;;;;9.93;4.22;;;-0.70;99.90;;;;;;4976934;28;20214;-69
2021/01/09 11:35:55;;;;;;;6.15;3.40;;;-0.70;99.90;;;;;;4978815;28;20242;-68
2021/01/09 11:38:21;;;;;;;7.07;3.45;;;-0.60;99.90;;;;;;4975747;28;20623;-69
2021/01/09 11:40:48;;;;;;;9.27;4.40;;;-0.70;99.90;;;;;;4979806;28;20199;-69
2021/01/09 11:43:13;;;;;;;9.50;4.15;;;-0.70;99.90;;;;;;4974567;28;21005;-68
2021/01/09 11:45:40;;;;;;;8.48;3.95;;;-0.70;99.90;;;;;;4969842;28;20200;-70
2021/01/09 11:48:07;;;;;;;9.75;4.00;;;-0.70;99.90;;;;;;4977346;28;20249;-69
2021/01/09 11:50:32;;;;;;;7.60;3.70;;;-0.70;99.90;;;;;;4980570;28;20203;-69
2021/01/09 11:52:58;;;;;;;9.32;4.00;;;-0.70;99.90;;;;;;4969590;28;20221;-68
2021/01/09 11:55:24;;;;;;;8.93;4.22;;;-0.60;99.90;;;;;;4966158;28;21025;-69
2021/01/09 11:57:50;;;;;;;7.18;3.78;;;-0.60;99.90;;;;;;4970687;28;20573;-70
2021/01/09 12:00:16;;;;;;;10.43;4.35;;;-0.60;99.90;;;;;;4969741;28;20203;-69
2021/01/09 12:02:41;;;;;;;12.23;4.25;;;-0.60;99.90;;;;;;4975312;28;20210;-69
2021/01/09 12:05:08;;;;;;;6.93;3.72;;;-0.60;99.90;;;;;;4973486;28;20236;-69
2021/01/09 12:07:34;;;;;;;8.68;3.90;;;-0.60;99.90;;;;;;4975785;28;20467;-69
2021/01/09 12:10:01;;;;;;;10.45;4.18;;;-0.50;99.90;;;;;;4975315;28;20611;-69
2021/01/09 12:12:27;;;;;;;8.80;3.88;;;-0.50;99.90;;;;;;4971586;28;20204;-69
2021/01/09 12:14:52;;;;;;;8.93;3.65;;;-0.50;99.90;;;;;;4975444;28;20195;-70
2021/01/09 12:17:18;;;;;;;11.00;3.75;;;-0.50;99.90;;;;;;4975355;28;20278;-70
2021/01/09 12:19:44;;;;;;;7.53;4.07;;;-0.50;99.90;;;;;;4966164;28;20314;-69
2021/01/09 12:22:09;;;;;;;8.35;3.97;;;-0.50;99.90;;;;;;4977450;28;20206;-71
2021/01/09 12:24:35;;;;;;;8.27;4.07;;;-0.50;99.90;;;;;;4972840;28;20566;-69
2021/01/09 12:27:01;;;;;;;6.88;3.75;;;-0.50;99.90;;;;;;4970575;28;20226;-69
2021/01/09 12:29:26;;;;;;;14.75;3.75;;;-0.50;99.90;;;;;;4966564;28;20200;-70
2021/01/09 12:31:52;;;;;;;10.50;4.07;;;-0.50;99.90;;;;;;4974381;28;20204;-69
2021/01/09 12:34:18;;;;;;;9.70;4.20;;;-0.50;99.90;;;;;;4974246;28;20327;-69
2021/01/09 12:36:48;;;;;;;8.93;4.13;;;-0.50;99.90;;;;;;4976711;28;20231;-69
2021/01/09 12:39:14;;;;;;;9.25;4.50;;;-0.50;99.90;;;;;;4974871;28;20192;-70
2021/01/09 12:41:40;;;;;;;7.28;3.80;;;-0.50;99.90;;;;;;4975516;28;20764;-69
2021/01/09 12:44:10;;;;;;;11.40;4.72;;;-0.40;99.90;;;;;;4971838;28;20219;-69
2021/01/09 12:46:42;;;;;;;6.78;3.90;;;-0.40;99.90;;;;;;4974171;28;20256;-68
2021/01/09 12:49:11;;;;;;;10.20;4.47;;;-0.50;99.90;;;;;;4970562;28;20204;-69
2021/01/09 12:51:38;;;;;;;7.25;3.80;;;-0.50;99.90;;;;;;4960308;28;21016;-70